createdAt,value
2023-01-18T00:03:02.900Z,52.3
2023-01-18T00:08:25.131Z,52.3
2023-01-18T00:13:32.244Z,52.2
2023-01-18T00:18:55.122Z,52.2
2023-01-18T00:24:17.666Z,52.1
2023-01-18T00:29:40.304Z,52.1
2023-01-18T00:35:06.905Z,52.1
2023-01-18T00:40:14.106Z,52.1
2023-01-18T00:45:36.702Z,52
2023-01-18T01:00:58.159Z,51.9
2023-01-18T01:06:21.930Z,51.9
2023-01-18T01:11:44.050Z,51.8
2023-01-18T01:17:06.396Z,51.8
2023-01-18T01:22:29.442Z,51.8
2023-01-18T01:27:36.933Z,51.7
2023-01-18T01:32:43.624Z,51.7
2023-01-18T01:38:05.719Z,51.6
2023-01-18T01:42:57.790Z,51.6
2023-01-18T01:48:20.246Z,51.6
2023-01-18T01:53:42.072Z,51.6
2023-01-18T01:59:04.391Z,51.5
2023-01-18T02:04:27.172Z,51.4
2023-01-18T02:09:49.624Z,51.6
2023-01-18T02:15:11.777Z,52.8
2023-01-18T02:20:34.022Z,54.3
2023-01-18T02:25:56.773Z,55.8
2023-01-18T02:31:03.978Z,57.3
2023-01-18T02:36:26.901Z,57.5
2023-01-18T02:41:49.032Z,57.5
2023-01-18T02:47:15.220Z,57.4
2023-01-18T02:52:36.952Z,57.4
2023-01-18T02:57:59.411Z,57.4
2023-01-18T03:03:22.222Z,57.4
2023-01-18T03:08:29.669Z,57.3
2023-01-18T03:13:35.744Z,57.3
2023-01-18T03:18:27.831Z,57.3
2023-01-18T03:23:36.024Z,57.3
2023-01-18T03:28:42.796Z,57.5
2023-01-18T03:34:05.729Z,58.7
2023-01-18T03:39:28.458Z,58.9
2023-01-18T03:44:51.357Z,58.9
2023-01-18T03:49:58.632Z,58.9
2023-01-18T03:55:05.836Z,58.8
2023-01-18T04:00:27.983Z,58.8
2023-01-18T04:05:51.555Z,58.8
2023-01-18T04:11:13.649Z,58.7
2023-01-18T04:16:35.797Z,58.6
2023-01-18T04:21:57.909Z,58.6
2023-01-18T04:32:12.084Z,58.5
2023-01-18T04:37:19.998Z,58.5
2023-01-18T04:42:42.376Z,58.4
2023-01-18T04:47:50.279Z,58.4
2023-01-18T04:53:13.280Z,58.4
2023-01-18T04:58:35.623Z,58.3
2023-01-18T05:03:59.313Z,58.3
2023-01-18T05:09:21.775Z,58.3
2023-01-18T05:14:44.127Z,58.2
2023-01-18T05:20:07.079Z,58.1
2023-01-18T05:25:30.066Z,58.1
2023-01-18T05:30:55.335Z,58.1
2023-01-18T05:36:17.571Z,58.1
2023-01-18T05:41:40.915Z,58
2023-01-18T05:46:50.565Z,57.9
2023-01-18T05:52:15.591Z,57.9
2023-01-18T05:57:37.653Z,57.9
2023-01-18T06:02:45.038Z,57.8
2023-01-18T06:13:16.182Z,57.7
2023-01-18T06:18:25.441Z,57.6
2023-01-18T06:23:50.870Z,57.6
2023-01-18T06:29:13.659Z,57.6
2023-01-18T06:34:36.610Z,57.5
2023-01-18T06:39:59.291Z,57.4
2023-01-18T06:45:22.412Z,57.4
2023-01-18T06:50:45.437Z,57.4
2023-01-18T06:56:11.517Z,57.3
2023-01-18T07:01:35.369Z,57.3
2023-01-18T07:06:59.068Z,57.3
2023-01-18T07:12:06.086Z,57.2
2023-01-18T07:17:41.566Z,57.1
2023-01-18T07:23:04.356Z,57.1
2023-01-18T07:28:26.751Z,57.1
2023-01-18T07:33:50.921Z,57
2023-01-18T07:39:16.006Z,56.9
2023-01-18T07:44:41.052Z,56.9
2023-01-18T07:50:03.791Z,56.9
2023-01-18T07:55:26.766Z,56.8
2023-01-18T08:00:49.269Z,56.8
2023-01-18T08:06:13.868Z,56.7
2023-01-18T08:11:37.540Z,56.7
2023-01-18T08:17:04.044Z,56.6
2023-01-18T08:22:26.578Z,56.6
2023-01-18T08:27:49.626Z,56.6
2023-01-18T08:33:12.813Z,56.5
2023-01-18T08:38:36.081Z,56.4
2023-01-18T08:43:58.369Z,56.4
2023-01-18T08:49:21.405Z,56.3
2023-01-18T08:54:44.678Z,56.3
2023-01-18T08:59:52.227Z,56.3
2023-01-18T09:05:18.603Z,56.2
2023-01-18T09:10:41.857Z,56.2
2023-01-18T09:16:18.238Z,56.1
2023-01-18T09:21:42.735Z,56.4
2023-01-18T09:27:05.311Z,56.6
2023-01-18T09:32:28.610Z,56.8
2023-01-18T09:38:02.537Z,56.9
2023-01-18T09:43:34.366Z,57.2
2023-01-18T09:48:56.523Z,57.4
2023-01-18T09:54:18.788Z,57.7
2023-01-18T09:59:42.005Z,57.9
2023-01-18T10:04:50.055Z,58.2
2023-01-18T10:10:12.679Z,58.4
2023-01-18T10:15:36.548Z,58.7
2023-01-18T10:20:59.279Z,59
2023-01-18T10:26:21.859Z,59.3
2023-01-18T10:31:44.872Z,59.6
2023-01-18T10:37:07.335Z,59.9
2023-01-18T10:42:15.037Z,60.2
2023-01-18T10:47:39.010Z,60.5
2023-01-18T10:53:01.978Z,60.8
2023-01-18T10:58:24.767Z,61
2023-01-18T11:03:49.338Z,61.3
2023-01-18T11:09:11.615Z,61.5
2023-01-18T11:14:34.314Z,61.7
2023-01-18T11:19:58.810Z,61.9
2023-01-18T11:25:07.586Z,62.1
2023-01-18T11:30:32.320Z,62.3
2023-01-18T11:35:58.398Z,62.5
2023-01-18T11:41:20.219Z,62.7
2023-01-18T11:46:42.964Z,62.8
2023-01-18T11:52:22.134Z,62.8
2023-01-18T11:57:28.948Z,62.8
2023-01-18T12:02:53.431Z,62.8
2023-01-18T12:08:19.371Z,63.1
2023-01-18T12:13:58.224Z,63.1
2023-01-18T12:19:36.055Z,63
2023-01-18T12:25:00.546Z,63
2023-01-18T12:30:30.756Z,63
2023-01-18T12:36:12.875Z,63.3
2023-01-18T12:41:38.706Z,63.2
2023-01-18T12:47:01.277Z,63.2
2023-01-18T12:52:35.152Z,63.2
2023-01-18T12:57:58.702Z,63.1
2023-01-18T13:03:24.338Z,63.1
2023-01-18T13:08:48.488Z,63.1
2023-01-18T13:14:11.666Z,63.1
2023-01-18T13:19:34.318Z,63
2023-01-18T13:24:56.532Z,62.9
2023-01-18T13:30:20.155Z,62.9
2023-01-18T13:36:10.035Z,62.9
2023-01-18T13:41:53.868Z,62.8
2023-01-18T13:47:17.692Z,62.8
2023-01-18T13:52:57.931Z,62.7
2023-01-18T13:58:22.533Z,62.6
2023-01-18T14:03:46.762Z,62.6
2023-01-18T14:09:10.000Z,62.5
2023-01-18T14:14:34.535Z,62.5
2023-01-18T14:20:16.424Z,62.4
2023-01-18T14:25:38.461Z,62.4
2023-01-18T14:31:01.405Z,62.4
2023-01-18T14:36:25.474Z,62.3
2023-01-18T14:41:59.179Z,62.3
2023-01-18T14:47:24.121Z,62.2
2023-01-18T14:52:47.629Z,62.1
2023-01-18T14:58:10.289Z,62.1
2023-01-18T15:03:34.643Z,62.1
2023-01-18T15:08:42.332Z,62
2023-01-18T15:13:49.495Z,61.9
2023-01-18T15:18:41.686Z,61.9
2023-01-18T15:24:05.193Z,61.8
2023-01-18T15:29:42.861Z,61.8
2023-01-18T15:35:06.302Z,61.8
2023-01-18T15:40:29.254Z,61.7
2023-01-18T15:45:51.707Z,61.6
2023-01-18T15:50:59.108Z,61.6
2023-01-18T15:56:22.109Z,61.5
2023-01-18T16:01:46.296Z,61.4
2023-01-18T16:07:09.330Z,61.4
2023-01-18T16:12:48.414Z,61.4
2023-01-18T16:18:10.649Z,61.3
2023-01-18T16:23:33.493Z,61.3
2023-01-18T16:28:56.138Z,61.2
2023-01-18T16:34:20.852Z,61.1
2023-01-18T16:39:51.643Z,61.1
2023-01-18T16:45:28.663Z,61
2023-01-18T16:50:52.590Z,61
2023-01-18T16:56:15.365Z,60.9
2023-01-18T17:01:38.504Z,60.8
2023-01-18T17:07:01.396Z,60.8
2023-01-18T17:12:30.949Z,60.7
2023-01-18T17:17:57.862Z,60.6
2023-01-18T17:23:20.837Z,60.6
2023-01-18T17:28:43.533Z,60.5
2023-01-18T17:34:12.022Z,60.5
2023-01-18T17:40:19.927Z,60.4
2023-01-18T17:46:27.406Z,60.4
2023-01-18T17:51:51.989Z,60.3
2023-01-18T17:57:14.811Z,60.3
2023-01-18T18:02:39.721Z,60.2
2023-01-18T18:08:18.419Z,60.1
2023-01-18T18:13:42.418Z,60.1
2023-01-18T18:19:28.894Z,60
2023-01-18T18:24:39.478Z,60
2023-01-18T18:30:13.133Z,59.9
2023-01-18T18:35:52.320Z,59.9
2023-01-18T18:41:16.638Z,59.8
2023-01-18T18:46:46.384Z,59.8
2023-01-18T18:52:13.455Z,59.8
2023-01-18T18:57:30.137Z,59.7
2023-01-18T19:02:55.277Z,59.6
2023-01-18T19:08:20.400Z,59.6
2023-01-18T19:13:36.521Z,59.5
2023-01-18T19:19:10.594Z,59.5
2023-01-18T19:24:35.680Z,59.4
2023-01-18T19:30:00.197Z,59.4
2023-01-18T19:35:24.872Z,59.3
2023-01-18T19:41:02.495Z,59.3
2023-01-18T19:46:18.947Z,59.2
2023-01-18T19:51:39.114Z,59.1
2023-01-18T19:56:58.060Z,59.1
2023-01-18T20:02:25.501Z,59.1
2023-01-18T20:07:36.346Z,59
2023-01-18T20:12:55.290Z,58.9
2023-01-18T20:18:26.608Z,58.9
2023-01-18T20:23:58.985Z,58.8
2023-01-18T20:29:35.046Z,58.8
2023-01-18T20:35:08.865Z,58.7
2023-01-18T20:40:33.358Z,58.6
2023-01-18T20:56:23.261Z,58.5
2023-01-18T21:01:51.848Z,58.4
2023-01-18T21:07:01.439Z,58.4
2023-01-18T21:12:09.651Z,58.4
2023-01-18T21:17:18.103Z,58.3
2023-01-18T21:22:25.342Z,58.3
2023-01-18T21:27:48.099Z,58.2
2023-01-18T21:33:11.264Z,58.1
2023-01-18T21:38:34.812Z,58.1
2023-01-18T21:43:57.924Z,58.1
2023-01-18T21:49:32.027Z,58
2023-01-18T21:55:09.347Z,57.9
2023-01-18T22:00:32.941Z,57.9
2023-01-18T22:05:57.900Z,57.9
2023-01-18T22:11:28.011Z,57.8
2023-01-18T22:21:57.906Z,57.7
2023-01-18T22:27:07.811Z,57.6
2023-01-18T22:32:30.749Z,57.6
2023-01-18T22:37:53.680Z,57.6
2023-01-18T22:43:16.146Z,57.5
2023-01-18T22:48:39.089Z,57.4
2023-01-18T22:54:01.724Z,57.4
2023-01-18T22:59:24.310Z,57.3
2023-01-18T23:04:31.918Z,57.3
2023-01-18T23:09:40.269Z,57.3
2023-01-18T23:14:47.693Z,57.2
2023-01-18T23:19:54.906Z,57.2
2023-01-18T23:25:17.282Z,57.1
2023-01-18T23:30:40.000Z,57.1
2023-01-18T23:35:31.942Z,57
2023-01-18T23:40:39.370Z,56.9
2023-01-18T23:46:02.594Z,56.9
2023-01-18T23:51:27.673Z,56.9
2023-01-18T23:56:50.395Z,56.8
